sensor_id;sensor_type;location;lat;lon;timestamp;P1;durP1;ratioP1;P2;durP2;ratioP2
22230;SDS011;11284;48.086;-1.652;2023-04-16T00:02:17;6.70;;;4.00;;
22230;SDS011;11284;48.086;-1.652;2023-04-16T00:04:43;7.90;;;4.07;;
22230;SDS011;11284;48.086;-1.652;2023-04-16T00:07:09;8.02;;;4.03;;
22230;SDS011;11284;48.086;-1.652;2023-04-16T00:09:35;7.78;;;3.85;;
22230;SDS011;11284;48.086;-1.652;2023-04-16T00:12:02;7.50;;;4.25;;
22230;SDS011;11284;48.086;-1.652;2023-04-16T00:14:28;7.95;;;4.35;;
22230;SDS011;11284;48.086;-1.652;2023-04-16T00:16:54;8.32;;;4.10;;
22230;SDS011;11284;48.086;-1.652;2023-04-16T00:19:20;8.98;;;5.03;;
22230;SDS011;11284;48.086;-1.652;2023-04-16T00:21:46;9.82;;;4.90;;
22230;SDS011;11284;48.086;-1.652;2023-04-16T00:24:12;9.20;;;4.45;;
22230;SDS011;11284;48.086;-1.652;2023-04-16T00:26:38;8.57;;;4.53;;
22230;SDS011;11284;48.086;-1.652;2023-04-16T00:29:04;7.95;;;4.85;;
22230;SDS011;11284;48.086;-1.652;2023-04-16T00:31:32;8.90;;;4.78;;
22230;SDS011;11284;48.086;-1.652;2023-04-16T00:33:58;9.18;;;4.78;;
22230;SDS011;11284;48.086;-1.652;2023-04-16T00:36:25;7.72;;;4.10;;
22230;SDS011;11284;48.086;-1.652;2023-04-16T00:38:52;7.20;;;4.20;;
22230;SDS011;11284;48.086;-1.652;2023-04-16T00:41:18;9.13;;;4.50;;
22230;SDS011;11284;48.086;-1.652;2023-04-16T00:43:44;9.93;;;4.90;;
22230;SDS011;11284;48.086;-1.652;2023-04-16T00:46:10;10.00;;;4.75;;
22230;SDS011;11284;48.086;-1.652;2023-04-16T00:48:37;10.07;;;4.55;;
22230;SDS011;11284;48.086;-1.652;2023-04-16T00:51:03;7.20;;;4.45;;
22230;SDS011;11284;48.086;-1.652;2023-04-16T00:53:30;9.07;;;4.82;;
22230;SDS011;11284;48.086;-1.652;2023-04-16T00:55:56;10.63;;;5.35;;
22230;SDS011;11284;48.086;-1.652;2023-04-16T00:58:22;9.65;;;4.95;;
22230;SDS011;11284;48.086;-1.652;2023-04-16T01:00:49;7.53;;;4.93;;
22230;SDS011;11284;48.086;-1.652;2023-04-16T01:03:15;7.63;;;4.65;;
22230;SDS011;11284;48.086;-1.652;2023-04-16T01:05:41;9.23;;;4.90;;
22230;SDS011;11284;48.086;-1.652;2023-04-16T01:08:14;9.65;;;5.32;;
22230;SDS011;11284;48.086;-1.652;2023-04-16T01:10:40;11.20;;;5.15;;
22230;SDS011;11284;48.086;-1.652;2023-04-16T01:13:06;9.40;;;4.57;;
22230;SDS011;11284;48.086;-1.652;2023-04-16T01:15:32;8.25;;;5.18;;
22230;SDS011;11284;48.086;-1.652;2023-04-16T01:17:58;8.57;;;4.97;;
22230;SDS011;11284;48.086;-1.652;2023-04-16T01:20:24;7.28;;;5.03;;
22230;SDS011;11284;48.086;-1.652;2023-04-16T01:22:50;7.90;;;4.50;;
22230;SDS011;11284;48.086;-1.652;2023-04-16T01:25:16;9.32;;;5.30;;
22230;SDS011;11284;48.086;-1.652;2023-04-16T01:27:42;9.63;;;5.13;;
22230;SDS011;11284;48.086;-1.652;2023-04-16T01:30:08;9.75;;;5.45;;
22230;SDS011;11284;48.086;-1.652;2023-04-16T01:32:34;8.43;;;5.00;;
22230;SDS011;11284;48.086;-1.652;2023-04-16T01:35:00;11.15;;;4.60;;
22230;SDS011;11284;48.086;-1.652;2023-04-16T01:37:27;7.95;;;4.93;;
22230;SDS011;11284;48.086;-1.652;2023-04-16T01:39:53;9.00;;;5.03;;
22230;SDS011;11284;48.086;-1.652;2023-04-16T01:42:19;8.35;;;5.40;;
22230;SDS011;11284;48.086;-1.652;2023-04-16T01:44:45;11.43;;;5.20;;
22230;SDS011;11284;48.086;-1.652;2023-04-16T01:47:11;9.70;;;5.15;;
22230;SDS011;11284;48.086;-1.652;2023-04-16T01:49:37;9.07;;;4.93;;
22230;SDS011;11284;48.086;-1.652;2023-04-16T01:52:03;8.80;;;5.45;;
22230;SDS011;11284;48.086;-1.652;2023-04-16T01:54:32;9.02;;;5.35;;
22230;SDS011;11284;48.086;-1.652;2023-04-16T01:56:58;10.70;;;5.28;;
22230;SDS011;11284;48.086;-1.652;2023-04-16T01:59:25;10.35;;;5.50;;
22230;SDS011;11284;48.086;-1.652;2023-04-16T02:01:51;9.75;;;5.30;;
22230;SDS011;11284;48.086;-1.652;2023-04-16T02:04:17;11.27;;;5.75;;
22230;SDS011;11284;48.086;-1.652;2023-04-16T02:06:43;8.73;;;5.22;;
22230;SDS011;11284;48.086;-1.652;2023-04-16T02:09:09;8.70;;;5.38;;
22230;SDS011;11284;48.086;-1.652;2023-04-16T02:11:35;7.22;;;5.18;;
22230;SDS011;11284;48.086;-1.652;2023-04-16T02:14:01;9.85;;;4.97;;
22230;SDS011;11284;48.086;-1.652;2023-04-16T02:16:27;8.13;;;4.90;;
22230;SDS011;11284;48.086;-1.652;2023-04-16T02:18:53;9.57;;;5.10;;
22230;SDS011;11284;48.086;-1.652;2023-04-16T02:21:19;10.82;;;5.93;;
22230;SDS011;11284;48.086;-1.652;2023-04-16T02:23:45;7.65;;;4.68;;
22230;SDS011;11284;48.086;-1.652;2023-04-16T02:26:15;8.80;;;5.55;;
22230;SDS011;11284;48.086;-1.652;2023-04-16T02:28:41;9.40;;;5.30;;
22230;SDS011;11284;48.086;-1.652;2023-04-16T02:31:07;8.93;;;5.75;;
22230;SDS011;11284;48.086;-1.652;2023-04-16T02:33:33;9.75;;;5.70;;
22230;SDS011;11284;48.086;-1.652;2023-04-16T02:35:59;10.15;;;6.07;;
22230;SDS011;11284;48.086;-1.652;2023-04-16T02:38:25;9.80;;;5.85;;
22230;SDS011;11284;48.086;-1.652;2023-04-16T02:40:51;9.55;;;5.78;;
22230;SDS011;11284;48.086;-1.652;2023-04-16T02:43:17;9.50;;;5.53;;
22230;SDS011;11284;48.086;-1.652;2023-04-16T02:45:43;8.57;;;5.43;;
22230;SDS011;11284;48.086;-1.652;2023-04-16T02:48:09;8.60;;;5.30;;
22230;SDS011;11284;48.086;-1.652;2023-04-16T02:50:35;9.35;;;5.57;;
22230;SDS011;11284;48.086;-1.652;2023-04-16T02:53:01;7.70;;;5.55;;
22230;SDS011;11284;48.086;-1.652;2023-04-16T02:55:28;8.45;;;5.47;;
22230;SDS011;11284;48.086;-1.652;2023-04-16T02:57:54;9.25;;;5.85;;
22230;SDS011;11284;48.086;-1.652;2023-04-16T03:00:21;10.23;;;5.95;;
22230;SDS011;11284;48.086;-1.652;2023-04-16T03:02:47;8.65;;;5.45;;
22230;SDS011;11284;48.086;-1.652;2023-04-16T03:05:14;7.32;;;5.15;;
22230;SDS011;11284;48.086;-1.652;2023-04-16T03:07:40;8.93;;;5.28;;
22230;SDS011;11284;48.086;-1.652;2023-04-16T03:10:06;7.70;;;5.05;;
22230;SDS011;11284;48.086;-1.652;2023-04-16T03:12:33;8.32;;;5.38;;
22230;SDS011;11284;48.086;-1.652;2023-04-16T03:14:59;8.80;;;5.22;;
22230;SDS011;11284;48.086;-1.652;2023-04-16T03:17:25;8.60;;;5.32;;
22230;SDS011;11284;48.086;-1.652;2023-04-16T03:19:51;7.75;;;5.40;;
22230;SDS011;11284;48.086;-1.652;2023-04-16T03:22:17;10.23;;;5.68;;
22230;SDS011;11284;48.086;-1.652;2023-04-16T03:24:43;9.85;;;5.80;;
22230;SDS011;11284;48.086;-1.652;2023-04-16T03:27:09;7.57;;;5.38;;
22230;SDS011;11284;48.086;-1.652;2023-04-16T03:29:38;9.60;;;5.93;;
22230;SDS011;11284;48.086;-1.652;2023-04-16T03:32:04;8.20;;;5.38;;
22230;SDS011;11284;48.086;-1.652;2023-04-16T03:34:30;8.30;;;5.28;;
22230;SDS011;11284;48.086;-1.652;2023-04-16T03:36:56;7.57;;;5.72;;
22230;SDS011;11284;48.086;-1.652;2023-04-16T03:39:22;9.52;;;6.05;;
22230;SDS011;11284;48.086;-1.652;2023-04-16T03:41:48;9.48;;;5.60;;
22230;SDS011;11284;48.086;-1.652;2023-04-16T03:44:14;11.25;;;6.05;;
22230;SDS011;11284;48.086;-1.652;2023-04-16T03:46:40;7.65;;;4.80;;
22230;SDS011;11284;48.086;-1.652;2023-04-16T03:49:06;10.07;;;5.35;;
22230;SDS011;11284;48.086;-1.652;2023-04-16T03:51:32;8.70;;;5.20;;
22230;SDS011;11284;48.086;-1.652;2023-04-16T03:53:58;7.82;;;5.80;;
22230;SDS011;11284;48.086;-1.652;2023-04-16T03:56:24;10.23;;;5.80;;
22230;SDS011;11284;48.086;-1.652;2023-04-16T03:58:50;9.85;;;5.80;;
22230;SDS011;11284;48.086;-1.652;2023-04-16T04:01:16;9.15;;;5.72;;
22230;SDS011;11284;48.086;-1.652;2023-04-16T04:03:42;9.45;;;5.88;;
22230;SDS011;11284;48.086;-1.652;2023-04-16T04:06:08;10.82;;;6.13;;
22230;SDS011;11284;48.086;-1.652;2023-04-16T04:08:34;8.68;;;5.95;;
22230;SDS011;11284;48.086;-1.652;2023-04-16T04:11:00;8.20;;;5.63;;
22230;SDS011;11284;48.086;-1.652;2023-04-16T04:13:26;9.48;;;5.30;;
22230;SDS011;11284;48.086;-1.652;2023-04-16T04:15:52;8.20;;;5.35;;
22230;SDS011;11284;48.086;-1.652;2023-04-16T04:18:18;9.55;;;5.78;;
22230;SDS011;11284;48.086;-1.652;2023-04-16T04:20:44;7.88;;;5.50;;
22230;SDS011;11284;48.086;-1.652;2023-04-16T04:23:10;8.60;;;5.82;;
22230;SDS011;11284;48.086;-1.652;2023-04-16T04:25:36;8.75;;;5.53;;
22230;SDS011;11284;48.086;-1.652;2023-04-16T04:28:02;7.97;;;6.03;;
22230;SDS011;11284;48.086;-1.652;2023-04-16T04:30:28;9.63;;;5.90;;
22230;SDS011;11284;48.086;-1.652;2023-04-16T04:32:54;12.00;;;5.88;;
22230;SDS011;11284;48.086;-1.652;2023-04-16T04:35:20;10.20;;;6.13;;
22230;SDS011;11284;48.086;-1.652;2023-04-16T04:37:46;7.07;;;5.43;;
22230;SDS011;11284;48.086;-1.652;2023-04-16T04:40:12;10.45;;;6.20;;
22230;SDS011;11284;48.086;-1.652;2023-04-16T04:42:38;11.38;;;6.47;;
22230;SDS011;11284;48.086;-1.652;2023-04-16T04:45:05;9.40;;;6.15;;
22230;SDS011;11284;48.086;-1.652;2023-04-16T04:47:31;10.63;;;5.95;;
22230;SDS011;11284;48.086;-1.652;2023-04-16T04:49:57;8.27;;;5.88;;
22230;SDS011;11284;48.086;-1.652;2023-04-16T04:52:23;9.60;;;6.07;;
22230;SDS011;11284;48.086;-1.652;2023-04-16T04:54:49;8.55;;;6.22;;
22230;SDS011;11284;48.086;-1.652;2023-04-16T04:57:15;11.52;;;6.25;;
22230;SDS011;11284;48.086;-1.652;2023-04-16T04:59:41;9.63;;;5.95;;
22230;SDS011;11284;48.086;-1.652;2023-04-16T05:02:07;9.98;;;6.13;;
22230;SDS011;11284;48.086;-1.652;2023-04-16T05:04:33;8.48;;;6.47;;
22230;SDS011;11284;48.086;-1.652;2023-04-16T05:06:59;10.27;;;6.07;;
22230;SDS011;11284;48.086;-1.652;2023-04-16T05:09:26;9.32;;;6.38;;
22230;SDS011;11284;48.086;-1.652;2023-04-16T05:11:52;10.73;;;6.15;;
22230;SDS011;11284;48.086;-1.652;2023-04-16T05:14:18;8.55;;;6.18;;
22230;SDS011;11284;48.086;-1.652;2023-04-16T05:16:44;8.18;;;5.63;;
22230;SDS011;11284;48.086;-1.652;2023-04-16T05:19:10;8.25;;;5.60;;
22230;SDS011;11284;48.086;-1.652;2023-04-16T05:21:36;10.00;;;5.57;;
22230;SDS011;11284;48.086;-1.652;2023-04-16T05:24:02;8.80;;;5.78;;
22230;SDS011;11284;48.086;-1.652;2023-04-16T05:26:28;8.27;;;5.53;;
22230;SDS011;11284;48.086;-1.652;2023-04-16T05:28:54;9.35;;;5.82;;
22230;SDS011;11284;48.086;-1.652;2023-04-16T05:31:20;9.18;;;6.15;;
22230;SDS011;11284;48.086;-1.652;2023-04-16T05:33:46;9.95;;;6.45;;
22230;SDS011;11284;48.086;-1.652;2023-04-16T05:36:12;9.75;;;7.03;;
22230;SDS011;11284;48.086;-1.652;2023-04-16T05:38:38;11.32;;;7.10;;
22230;SDS011;11284;48.086;-1.652;2023-04-16T05:41:04;10.25;;;6.57;;
22230;SDS011;11284;48.086;-1.652;2023-04-16T05:43:30;10.88;;;6.80;;
22230;SDS011;11284;48.086;-1.652;2023-04-16T05:45:57;9.27;;;6.57;;
22230;SDS011;11284;48.086;-1.652;2023-04-16T05:48:23;10.63;;;5.80;;
22230;SDS011;11284;48.086;-1.652;2023-04-16T05:50:49;9.43;;;7.15;;
22230;SDS011;11284;48.086;-1.652;2023-04-16T05:53:15;9.65;;;7.05;;
22230;SDS011;11284;48.086;-1.652;2023-04-16T05:55:43;9.75;;;6.22;;
22230;SDS011;11284;48.086;-1.652;2023-04-16T05:58:09;9.30;;;6.18;;
22230;SDS011;11284;48.086;-1.652;2023-04-16T06:00:35;12.13;;;6.63;;
22230;SDS011;11284;48.086;-1.652;2023-04-16T06:03:01;8.90;;;6.20;;
22230;SDS011;11284;48.086;-1.652;2023-04-16T06:05:27;8.93;;;6.10;;
22230;SDS011;11284;48.086;-1.652;2023-04-16T06:07:53;10.13;;;6.43;;
22230;SDS011;11284;48.086;-1.652;2023-04-16T06:10:20;10.82;;;6.47;;
22230;SDS011;11284;48.086;-1.652;2023-04-16T06:12:46;10.10;;;6.68;;
22230;SDS011;11284;48.086;-1.652;2023-04-16T06:15:12;9.18;;;6.28;;
22230;SDS011;11284;48.086;-1.652;2023-04-16T06:17:38;8.48;;;5.93;;
22230;SDS011;11284;48.086;-1.652;2023-04-16T06:20:04;9.98;;;6.05;;
22230;SDS011;11284;48.086;-1.652;2023-04-16T06:22:31;8.65;;;6.63;;
22230;SDS011;11284;48.086;-1.652;2023-04-16T06:24:57;11.73;;;7.97;;
22230;SDS011;11284;48.086;-1.652;2023-04-16T06:27:23;13.05;;;8.40;;
22230;SDS011;11284;48.086;-1.652;2023-04-16T06:29:49;10.43;;;7.90;;
22230;SDS011;11284;48.086;-1.652;2023-04-16T06:32:16;11.13;;;7.75;;
22230;SDS011;11284;48.086;-1.652;2023-04-16T06:34:42;9.52;;;6.75;;
22230;SDS011;11284;48.086;-1.652;2023-04-16T06:37:08;9.40;;;6.40;;
22230;SDS011;11284;48.086;-1.652;2023-04-16T06:39:34;9.13;;;6.32;;
22230;SDS011;11284;48.086;-1.652;2023-04-16T06:42:00;10.95;;;7.63;;
22230;SDS011;11284;48.086;-1.652;2023-04-16T06:44:26;10.13;;;7.50;;
22230;SDS011;11284;48.086;-1.652;2023-04-16T06:46:52;11.48;;;7.20;;
22230;SDS011;11284;48.086;-1.652;2023-04-16T06:49:18;9.50;;;6.45;;
22230;SDS011;11284;48.086;-1.652;2023-04-16T06:51:44;9.05;;;6.82;;
22230;SDS011;11284;48.086;-1.652;2023-04-16T06:54:10;9.55;;;6.38;;
22230;SDS011;11284;48.086;-1.652;2023-04-16T06:56:36;9.20;;;6.90;;
22230;SDS011;11284;48.086;-1.652;2023-04-16T06:59:02;11.80;;;7.00;;
22230;SDS011;11284;48.086;-1.652;2023-04-16T07:01:28;12.20;;;7.47;;
22230;SDS011;11284;48.086;-1.652;2023-04-16T07:03:57;13.00;;;7.18;;
22230;SDS011;11284;48.086;-1.652;2023-04-16T07:06:23;10.38;;;7.18;;
22230;SDS011;11284;48.086;-1.652;2023-04-16T07:08:51;10.57;;;7.55;;
22230;SDS011;11284;48.086;-1.652;2023-04-16T07:11:17;9.80;;;7.00;;
22230;SDS011;11284;48.086;-1.652;2023-04-16T07:13:43;11.32;;;7.45;;
22230;SDS011;11284;48.086;-1.652;2023-04-16T07:16:09;11.55;;;7.97;;
22230;SDS011;11284;48.086;-1.652;2023-04-16T07:18:35;11.27;;;8.10;;
22230;SDS011;11284;48.086;-1.652;2023-04-16T07:21:01;10.68;;;7.72;;
22230;SDS011;11284;48.086;-1.652;2023-04-16T07:23:27;10.98;;;8.05;;
22230;SDS011;11284;48.086;-1.652;2023-04-16T07:25:53;12.27;;;8.80;;
22230;SDS011;11284;48.086;-1.652;2023-04-16T07:28:19;10.90;;;7.68;;
22230;SDS011;11284;48.086;-1.652;2023-04-16T07:30:45;12.30;;;8.30;;
22230;SDS011;11284;48.086;-1.652;2023-04-16T07:33:11;13.27;;;8.32;;
22230;SDS011;11284;48.086;-1.652;2023-04-16T07:35:37;9.48;;;7.97;;
22230;SDS011;11284;48.086;-1.652;2023-04-16T07:38:03;11.70;;;7.80;;
22230;SDS011;11284;48.086;-1.652;2023-04-16T07:40:30;11.00;;;8.35;;
22230;SDS011;11284;48.086;-1.652;2023-04-16T07:42:56;12.05;;;8.60;;
22230;SDS011;11284;48.086;-1.652;2023-04-16T07:45:22;11.73;;;8.52;;
22230;SDS011;11284;48.086;-1.652;2023-04-16T07:47:48;11.93;;;8.23;;
22230;SDS011;11284;48.086;-1.652;2023-04-16T07:50:14;12.85;;;8.32;;
22230;SDS011;11284;48.086;-1.652;2023-04-16T07:52:40;10.68;;;7.93;;
22230;SDS011;11284;48.086;-1.652;2023-04-16T07:55:07;10.93;;;7.93;;
22230;SDS011;11284;48.086;-1.652;2023-04-16T07:57:33;11.60;;;7.63;;
22230;SDS011;11284;48.086;-1.652;2023-04-16T07:59:59;21.45;;;17.45;;
22230;SDS011;11284;48.086;-1.652;2023-04-16T08:02:31;18.95;;;13.70;;
22230;SDS011;11284;48.086;-1.652;2023-04-16T08:04:58;12.38;;;8.15;;
22230;SDS011;11284;48.086;-1.652;2023-04-16T08:07:24;11.13;;;8.13;;
22230;SDS011;11284;48.086;-1.652;2023-04-16T08:09:50;11.20;;;7.97;;
22230;SDS011;11284;48.086;-1.652;2023-04-16T08:12:16;12.40;;;8.23;;
22230;SDS011;11284;48.086;-1.652;2023-04-16T08:14:43;10.70;;;7.68;;
22230;SDS011;11284;48.086;-1.652;2023-04-16T08:17:18;10.95;;;7.85;;
22230;SDS011;11284;48.086;-1.652;2023-04-16T08:19:44;10.00;;;7.38;;
22230;SDS011;11284;48.086;-1.652;2023-04-16T08:22:11;11.63;;;8.00;;
22230;SDS011;11284;48.086;-1.652;2023-04-16T08:24:37;10.40;;;7.15;;
22230;SDS011;11284;48.086;-1.652;2023-04-16T08:27:03;10.95;;;6.88;;
22230;SDS011;11284;48.086;-1.652;2023-04-16T08:29:30;11.90;;;6.55;;
22230;SDS011;11284;48.086;-1.652;2023-04-16T08:31:56;8.57;;;6.20;;
22230;SDS011;11284;48.086;-1.652;2023-04-16T08:34:22;8.63;;;5.95;;
22230;SDS011;11284;48.086;-1.652;2023-04-16T08:36:48;7.57;;;5.57;;
22230;SDS011;11284;48.086;-1.652;2023-04-16T08:39:14;7.03;;;5.07;;
22230;SDS011;11284;48.086;-1.652;2023-04-16T08:41:40;8.30;;;4.68;;
22230;SDS011;11284;48.086;-1.652;2023-04-16T08:44:08;7.30;;;4.78;;
22230;SDS011;11284;48.086;-1.652;2023-04-16T08:46:36;7.18;;;4.78;;
22230;SDS011;11284;48.086;-1.652;2023-04-16T08:49:05;6.13;;;4.30;;
22230;SDS011;11284;48.086;-1.652;2023-04-16T08:51:34;8.23;;;5.32;;
22230;SDS011;11284;48.086;-1.652;2023-04-16T08:54:04;7.25;;;4.70;;
22230;SDS011;11284;48.086;-1.652;2023-04-16T08:56:30;7.50;;;4.55;;
22230;SDS011;11284;48.086;-1.652;2023-04-16T08:59:00;6.60;;;4.18;;
22230;SDS011;11284;48.086;-1.652;2023-04-16T09:01:30;6.90;;;4.25;;
22230;SDS011;11284;48.086;-1.652;2023-04-16T09:03:57;6.10;;;4.30;;
22230;SDS011;11284;48.086;-1.652;2023-04-16T09:06:26;7.13;;;4.05;;
22230;SDS011;11284;48.086;-1.652;2023-04-16T09:08:52;9.95;;;7.30;;
22230;SDS011;11284;48.086;-1.652;2023-04-16T09:11:18;20.83;;;14.70;;
22230;SDS011;11284;48.086;-1.652;2023-04-16T09:13:45;20.25;;;9.45;;
22230;SDS011;11284;48.086;-1.652;2023-04-16T09:16:11;7.95;;;4.20;;
22230;SDS011;11284;48.086;-1.652;2023-04-16T09:18:37;7.50;;;4.40;;
22230;SDS011;11284;48.086;-1.652;2023-04-16T09:21:04;6.15;;;4.28;;
22230;SDS011;11284;48.086;-1.652;2023-04-16T09:23:31;6.10;;;4.50;;
22230;SDS011;11284;48.086;-1.652;2023-04-16T09:25:58;5.97;;;4.15;;
22230;SDS011;11284;48.086;-1.652;2023-04-16T09:31:10;6.35;;;3.95;;
22230;SDS011;11284;48.086;-1.652;2023-04-16T09:33:37;6.47;;;3.60;;
22230;SDS011;11284;48.086;-1.652;2023-04-16T09:36:04;6.38;;;3.95;;
22230;SDS011;11284;48.086;-1.652;2023-04-16T09:38:50;7.10;;;3.83;;
22230;SDS011;11284;48.086;-1.652;2023-04-16T09:41:17;7.93;;;4.80;;
22230;SDS011;11284;48.086;-1.652;2023-04-16T09:43:56;6.65;;;4.13;;
22230;SDS011;11284;48.086;-1.652;2023-04-16T09:46:23;7.85;;;4.97;;
22230;SDS011;11284;48.086;-1.652;2023-04-16T09:48:49;7.45;;;4.57;;
22230;SDS011;11284;48.086;-1.652;2023-04-16T09:51:15;8.15;;;4.65;;
22230;SDS011;11284;48.086;-1.652;2023-04-16T09:53:41;10.18;;;4.70;;
22230;SDS011;11284;48.086;-1.652;2023-04-16T09:56:07;9.52;;;6.10;;
22230;SDS011;11284;48.086;-1.652;2023-04-16T09:58:35;9.32;;;5.15;;
22230;SDS011;11284;48.086;-1.652;2023-04-16T10:01:02;8.65;;;4.93;;
22230;SDS011;11284;48.086;-1.652;2023-04-16T10:03:29;7.47;;;4.60;;
22230;SDS011;11284;48.086;-1.652;2023-04-16T10:05:58;8.40;;;5.15;;
22230;SDS011;11284;48.086;-1.652;2023-04-16T10:08:24;9.15;;;4.80;;
22230;SDS011;11284;48.086;-1.652;2023-04-16T10:10:50;9.80;;;5.43;;
22230;SDS011;11284;48.086;-1.652;2023-04-16T10:13:17;8.80;;;4.95;;
22230;SDS011;11284;48.086;-1.652;2023-04-16T10:15:43;10.27;;;5.55;;
22230;SDS011;11284;48.086;-1.652;2023-04-16T10:18:09;8.13;;;5.22;;
22230;SDS011;11284;48.086;-1.652;2023-04-16T10:20:35;8.02;;;5.03;;
22230;SDS011;11284;48.086;-1.652;2023-04-16T10:23:02;8.23;;;4.75;;
22230;SDS011;11284;48.086;-1.652;2023-04-16T10:25:28;9.75;;;5.95;;
22230;SDS011;11284;48.086;-1.652;2023-04-16T10:27:55;9.90;;;5.75;;
22230;SDS011;11284;48.086;-1.652;2023-04-16T10:30:22;10.57;;;5.97;;
22230;SDS011;11284;48.086;-1.652;2023-04-16T10:32:48;9.60;;;5.47;;
22230;SDS011;11284;48.086;-1.652;2023-04-16T10:35:14;9.07;;;5.53;;
22230;SDS011;11284;48.086;-1.652;2023-04-16T10:37:45;8.75;;;5.43;;
22230;SDS011;11284;48.086;-1.652;2023-04-16T10:40:21;8.43;;;4.85;;
22230;SDS011;11284;48.086;-1.652;2023-04-16T10:42:54;7.32;;;4.75;;
22230;SDS011;11284;48.086;-1.652;2023-04-16T10:45:24;10.25;;;5.30;;
22230;SDS011;11284;48.086;-1.652;2023-04-16T10:47:54;7.63;;;5.38;;
22230;SDS011;11284;48.086;-1.652;2023-04-16T10:50:21;8.30;;;4.80;;
22230;SDS011;11284;48.086;-1.652;2023-04-16T10:52:47;8.63;;;4.95;;
22230;SDS011;11284;48.086;-1.652;2023-04-16T10:55:16;8.85;;;5.10;;
22230;SDS011;11284;48.086;-1.652;2023-04-16T10:57:42;10.65;;;5.10;;
22230;SDS011;11284;48.086;-1.652;2023-04-16T11:00:21;9.52;;;5.32;;
22230;SDS011;11284;48.086;-1.652;2023-04-16T11:02:51;8.98;;;4.90;;
22230;SDS011;11284;48.086;-1.652;2023-04-16T11:05:20;8.10;;;4.90;;
22230;SDS011;11284;48.086;-1.652;2023-04-16T11:07:46;7.85;;;4.45;;
22230;SDS011;11284;48.086;-1.652;2023-04-16T11:10:13;7.65;;;4.80;;
22230;SDS011;11284;48.086;-1.652;2023-04-16T11:12:43;8.85;;;4.80;;
22230;SDS011;11284;48.086;-1.652;2023-04-16T11:15:13;9.75;;;5.00;;
22230;SDS011;11284;48.086;-1.652;2023-04-16T11:17:43;8.95;;;4.90;;
22230;SDS011;11284;48.086;-1.652;2023-04-16T11:22:35;9.52;;;5.00;;
22230;SDS011;11284;48.086;-1.652;2023-04-16T11:25:02;8.73;;;5.63;;
22230;SDS011;11284;48.086;-1.652;2023-04-16T11:27:29;8.65;;;5.47;;
22230;SDS011;11284;48.086;-1.652;2023-04-16T11:29:55;9.32;;;5.40;;
22230;SDS011;11284;48.086;-1.652;2023-04-16T11:32:22;8.30;;;5.00;;
22230;SDS011;11284;48.086;-1.652;2023-04-16T11:34:48;9.52;;;5.45;;
22230;SDS011;11284;48.086;-1.652;2023-04-16T11:37:14;7.57;;;5.28;;
22230;SDS011;11284;48.086;-1.652;2023-04-16T11:39:50;10.45;;;5.68;;
22230;SDS011;11284;48.086;-1.652;2023-04-16T11:42:20;8.07;;;5.30;;
22230;SDS011;11284;48.086;-1.652;2023-04-16T11:44:54;11.98;;;6.00;;
22230;SDS011;11284;48.086;-1.652;2023-04-16T11:47:21;9.07;;;5.75;;
22230;SDS011;11284;48.086;-1.652;2023-04-16T11:49:47;8.10;;;4.97;;
22230;SDS011;11284;48.086;-1.652;2023-04-16T11:52:23;9.57;;;5.20;;
22230;SDS011;11284;48.086;-1.652;2023-04-16T11:54:51;12.07;;;5.57;;
22230;SDS011;11284;48.086;-1.652;2023-04-16T11:57:23;7.60;;;5.35;;
22230;SDS011;11284;48.086;-1.652;2023-04-16T12:02:16;9.05;;;5.35;;
22230;SDS011;11284;48.086;-1.652;2023-04-16T12:04:42;9.20;;;4.95;;
22230;SDS011;11284;48.086;-1.652;2023-04-16T12:07:12;8.82;;;5.55;;
22230;SDS011;11284;48.086;-1.652;2023-04-16T12:09:39;8.90;;;4.38;;
22230;SDS011;11284;48.086;-1.652;2023-04-16T12:12:06;8.65;;;4.78;;
22230;SDS011;11284;48.086;-1.652;2023-04-16T12:14:49;6.78;;;4.03;;
22230;SDS011;11284;48.086;-1.652;2023-04-16T12:17:19;7.82;;;4.40;;
22230;SDS011;11284;48.086;-1.652;2023-04-16T12:22:14;7.78;;;4.95;;
22230;SDS011;11284;48.086;-1.652;2023-04-16T12:24:40;8.27;;;4.90;;
22230;SDS011;11284;48.086;-1.652;2023-04-16T12:27:06;7.57;;;4.13;;
22230;SDS011;11284;48.086;-1.652;2023-04-16T12:29:33;7.13;;;4.40;;
22230;SDS011;11284;48.086;-1.652;2023-04-16T12:31:59;6.57;;;4.30;;
22230;SDS011;11284;48.086;-1.652;2023-04-16T12:34:25;9.75;;;3.70;;
22230;SDS011;11284;48.086;-1.652;2023-04-16T12:37:07;5.63;;;3.25;;
22230;SDS011;11284;48.086;-1.652;2023-04-16T12:39:36;8.40;;;3.60;;
22230;SDS011;11284;48.086;-1.652;2023-04-16T12:42:02;6.82;;;3.75;;
22230;SDS011;11284;48.086;-1.652;2023-04-16T12:44:29;8.45;;;3.10;;
22230;SDS011;11284;48.086;-1.652;2023-04-16T12:46:55;7.32;;;4.22;;
22230;SDS011;11284;48.086;-1.652;2023-04-16T12:49:21;6.97;;;3.53;;
22230;SDS011;11284;48.086;-1.652;2023-04-16T12:51:47;6.30;;;3.15;;
22230;SDS011;11284;48.086;-1.652;2023-04-16T12:54:13;6.85;;;4.00;;
22230;SDS011;11284;48.086;-1.652;2023-04-16T12:56:40;7.32;;;4.07;;
22230;SDS011;11284;48.086;-1.652;2023-04-16T12:59:06;7.85;;;4.00;;
22230;SDS011;11284;48.086;-1.652;2023-04-16T13:01:34;7.57;;;4.10;;
22230;SDS011;11284;48.086;-1.652;2023-04-16T13:04:01;7.35;;;4.22;;
22230;SDS011;11284;48.086;-1.652;2023-04-16T13:06:28;8.38;;;3.85;;
22230;SDS011;11284;48.086;-1.652;2023-04-16T13:08:57;8.93;;;4.15;;
22230;SDS011;11284;48.086;-1.652;2023-04-16T13:11:23;8.20;;;3.95;;
22230;SDS011;11284;48.086;-1.652;2023-04-16T13:13:49;6.90;;;3.13;;
22230;SDS011;11284;48.086;-1.652;2023-04-16T13:16:15;6.72;;;3.28;;
22230;SDS011;11284;48.086;-1.652;2023-04-16T13:18:41;6.78;;;3.35;;
22230;SDS011;11284;48.086;-1.652;2023-04-16T13:21:07;6.45;;;3.35;;
22230;SDS011;11284;48.086;-1.652;2023-04-16T13:23:34;7.10;;;3.45;;
22230;SDS011;11284;48.086;-1.652;2023-04-16T13:26:00;5.95;;;3.35;;
22230;SDS011;11284;48.086;-1.652;2023-04-16T13:28:26;8.20;;;3.63;;
22230;SDS011;11284;48.086;-1.652;2023-04-16T13:30:52;7.95;;;3.35;;
22230;SDS011;11284;48.086;-1.652;2023-04-16T13:33:18;6.38;;;3.47;;
22230;SDS011;11284;48.086;-1.652;2023-04-16T13:35:45;6.95;;;3.15;;
22230;SDS011;11284;48.086;-1.652;2023-04-16T13:38:11;8.68;;;3.20;;
22230;SDS011;11284;48.086;-1.652;2023-04-16T13:40:37;6.82;;;3.10;;
22230;SDS011;11284;48.086;-1.652;2023-04-16T13:43:03;6.07;;;2.80;;
22230;SDS011;11284;48.086;-1.652;2023-04-16T13:45:30;8.15;;;3.33;;
22230;SDS011;11284;48.086;-1.652;2023-04-16T13:47:56;5.85;;;2.90;;
22230;SDS011;11284;48.086;-1.652;2023-04-16T13:50:22;5.15;;;2.38;;
22230;SDS011;11284;48.086;-1.652;2023-04-16T13:52:48;6.68;;;2.35;;
22230;SDS011;11284;48.086;-1.652;2023-04-16T13:55:14;6.60;;;2.45;;
22230;SDS011;11284;48.086;-1.652;2023-04-16T13:57:43;6.80;;;3.13;;
22230;SDS011;11284;48.086;-1.652;2023-04-16T14:00:09;5.55;;;3.00;;
22230;SDS011;11284;48.086;-1.652;2023-04-16T14:02:35;5.28;;;2.63;;
22230;SDS011;11284;48.086;-1.652;2023-04-16T14:05:01;6.45;;;2.40;;
22230;SDS011;11284;48.086;-1.652;2023-04-16T14:07:27;6.28;;;2.60;;
22230;SDS011;11284;48.086;-1.652;2023-04-16T14:09:53;5.22;;;2.33;;
22230;SDS011;11284;48.086;-1.652;2023-04-16T14:12:19;5.03;;;2.55;;
22230;SDS011;11284;48.086;-1.652;2023-04-16T14:14:45;7.18;;;2.50;;
22230;SDS011;11284;48.086;-1.652;2023-04-16T14:17:12;5.45;;;2.40;;
22230;SDS011;11284;48.086;-1.652;2023-04-16T14:19:38;4.75;;;1.95;;
22230;SDS011;11284;48.086;-1.652;2023-04-16T14:22:04;6.40;;;2.22;;
22230;SDS011;11284;48.086;-1.652;2023-04-16T14:24:30;4.28;;;1.90;;
22230;SDS011;11284;48.086;-1.652;2023-04-16T14:26:56;5.88;;;2.08;;
22230;SDS011;11284;48.086;-1.652;2023-04-16T14:29:21;6.78;;;2.67;;
22230;SDS011;11284;48.086;-1.652;2023-04-16T14:31:47;4.68;;;2.20;;
22230;SDS011;11284;48.086;-1.652;2023-04-16T14:34:14;4.82;;;2.63;;
22230;SDS011;11284;48.086;-1.652;2023-04-16T14:36:40;6.85;;;2.90;;
22230;SDS011;11284;48.086;-1.652;2023-04-16T14:39:06;5.30;;;2.50;;